createdAt,value
2018-06-23T00:00:03.513Z,12.687
2018-06-23T00:01:04.272Z,12.625
2018-06-23T00:02:03.376Z,12.625
2018-06-23T00:03:03.808Z,12.562
2018-06-23T00:04:04.133Z,12.625
2018-06-23T00:05:03.913Z,12.562
2018-06-23T00:06:03.467Z,12.562
2018-06-23T00:07:03.967Z,12.5
2018-06-23T00:08:03.483Z,12.437
2018-06-23T00:10:03.950Z,12.375
2018-06-23T00:11:04.191Z,12.375
2018-06-23T00:12:03.620Z,12.375
2018-06-23T00:13:04.202Z,12.375
2018-06-23T00:14:03.982Z,12.312
2018-06-23T00:15:03.474Z,12.312
2018-06-23T00:16:04.187Z,12.375
2018-06-23T00:17:04.109Z,12.312
2018-06-23T00:18:03.454Z,12.312
2018-06-23T00:19:03.941Z,12.312
2018-06-23T00:20:04.078Z,12.375
2018-06-23T00:21:03.713Z,12.375
2018-06-23T00:22:04.208Z,12.375
2018-06-23T00:23:03.633Z,12.312
2018-06-23T00:24:04.178Z,12.25
2018-06-23T00:25:03.672Z,12.25
2018-06-23T00:26:04.235Z,12.187
2018-06-23T00:27:03.657Z,12.187
2018-06-23T00:28:04.718Z,12.187
2018-06-23T00:29:04.041Z,12.187
2018-06-23T00:30:03.423Z,12.062
2018-06-23T00:31:03.880Z,11.937
2018-06-23T00:32:03.288Z,11.812
2018-06-23T00:33:03.742Z,11.75
2018-06-23T00:34:04.147Z,11.625
2018-06-23T00:35:03.764Z,11.562
2018-06-23T00:36:04.114Z,11.437
2018-06-23T00:37:03.819Z,11.437
2018-06-23T00:38:04.338Z,11.375
2018-06-23T00:40:03.863Z,11.375
2018-06-23T00:41:03.341Z,11.375
2018-06-23T00:42:03.826Z,11.312
2018-06-23T00:43:03.432Z,11.312
2018-06-23T00:44:03.838Z,11.375
2018-06-23T00:45:03.405Z,11.375
2018-06-23T00:46:03.560Z,11.437
2018-06-23T00:47:04.051Z,11.437
2018-06-23T00:48:03.432Z,11.437
2018-06-23T00:49:04.262Z,11.437
2018-06-23T00:50:03.678Z,11.375
2018-06-23T00:51:04.391Z,11.375
2018-06-23T00:52:03.696Z,11.375
2018-06-23T00:53:03.977Z,11.375
2018-06-23T00:54:03.319Z,11.437
2018-06-23T00:55:03.337Z,11.375
2018-06-23T00:56:03.419Z,11.375
2018-06-23T00:57:03.865Z,11.437
2018-06-23T00:58:03.401Z,11.375
2018-06-23T00:59:03.805Z,11.437
2018-06-23T01:00:04.095Z,11.437
2018-06-23T01:01:04.264Z,11.5
2018-06-23T01:02:03.733Z,11.5
2018-06-23T01:03:03.478Z,11.562
2018-06-23T01:04:04.005Z,11.5
2018-06-23T01:05:03.529Z,11.562
2018-06-23T01:06:04.125Z,11.562
2018-06-23T01:07:03.728Z,11.562
2018-06-23T01:08:04.101Z,11.625
2018-06-23T01:09:03.727Z,11.625
2018-06-23T01:10:04.046Z,11.625
2018-06-23T01:11:03.543Z,11.625
2018-06-23T01:12:03.583Z,11.625
2018-06-23T01:13:04.368Z,11.687
2018-06-23T01:14:03.587Z,11.75
2018-06-23T01:15:03.856Z,11.75
2018-06-23T01:16:04.285Z,11.75
2018-06-23T01:17:04.290Z,11.75
2018-06-23T01:18:03.586Z,11.75
2018-06-23T01:19:03.996Z,11.812
2018-06-23T01:20:03.520Z,11.812
2018-06-23T01:21:03.531Z,11.812
2018-06-23T01:22:04.077Z,11.75
2018-06-23T01:23:03.636Z,11.75
2018-06-23T01:24:04.090Z,11.75
2018-06-23T01:25:03.398Z,11.75
2018-06-23T01:26:03.865Z,11.812
2018-06-23T01:27:03.392Z,11.812
2018-06-23T01:28:03.866Z,11.812
2018-06-23T01:29:03.410Z,11.875
2018-06-23T01:30:03.982Z,11.875
2018-06-23T01:31:03.722Z,11.875
2018-06-23T01:32:04.133Z,11.937
2018-06-23T01:33:03.747Z,11.875
2018-06-23T01:34:03.990Z,11.875
2018-06-23T01:35:03.585Z,11.875
2018-06-23T01:36:04.162Z,11.875
2018-06-23T01:37:03.675Z,11.937
2018-06-23T01:38:04.183Z,11.937
2018-06-23T01:39:03.756Z,11.937
2018-06-23T01:40:03.416Z,11.937
2018-06-23T01:41:03.814Z,11.875
2018-06-23T01:42:04.250Z,11.875
2018-06-23T01:43:03.860Z,11.937
2018-06-23T01:44:04.080Z,11.875
2018-06-23T01:45:03.637Z,11.875
2018-06-23T01:46:03.885Z,11.875
2018-06-23T01:47:03.355Z,11.875
2018-06-23T01:48:03.965Z,11.875
2018-06-23T01:49:03.387Z,11.875
2018-06-23T01:50:03.665Z,11.937
2018-06-23T01:51:04.209Z,11.875
2018-06-23T01:52:03.621Z,11.875
2018-06-23T01:53:04.196Z,11.812
2018-06-23T01:54:03.742Z,11.75
2018-06-23T01:55:03.532Z,11.75
2018-06-23T01:56:04.018Z,11.75
2018-06-23T01:57:03.531Z,11.687
2018-06-23T01:58:03.888Z,11.687
2018-06-23T01:59:04.116Z,11.687
2018-06-23T02:00:03.644Z,11.687
2018-06-23T02:01:04.162Z,11.687
2018-06-23T02:02:04.729Z,11.687
2018-06-23T02:03:04.035Z,11.625
2018-06-23T02:04:04.492Z,11.562
2018-06-23T02:05:03.857Z,11.562
2018-06-23T02:06:03.363Z,11.625
2018-06-23T02:07:03.927Z,11.687
2018-06-23T02:08:03.646Z,11.75
2018-06-23T02:09:04.367Z,11.75
2018-06-23T02:10:04.228Z,11.75
2018-06-23T02:11:04.513Z,11.687
2018-06-23T02:12:03.739Z,11.75
2018-06-23T02:13:03.874Z,11.75
2018-06-23T02:14:04.239Z,11.75
2018-06-23T02:15:03.833Z,11.75
2018-06-23T02:16:03.336Z,11.75
2018-06-23T02:17:03.963Z,11.75
2018-06-23T02:18:04.133Z,11.75
2018-06-23T02:19:03.598Z,11.75
2018-06-23T02:20:04.130Z,11.75
2018-06-23T02:21:03.411Z,11.687
2018-06-23T02:22:03.639Z,11.625
2018-06-23T02:23:04.241Z,11.562
2018-06-23T02:24:03.495Z,11.562
2018-06-23T02:25:04.158Z,11.562
2018-06-23T02:26:03.680Z,11.562
2018-06-23T02:27:04.116Z,11.562
2018-06-23T02:28:03.449Z,11.5
2018-06-23T02:29:04.008Z,11.437
2018-06-23T02:30:03.580Z,11.375
2018-06-23T02:31:04.125Z,11.312
2018-06-23T02:32:03.835Z,11.187
2018-06-23T02:33:04.287Z,11.125
2018-06-23T02:34:03.751Z,11.125
2018-06-23T02:35:03.921Z,11.062
2018-06-23T02:36:04.175Z,11.062
2018-06-23T02:37:03.614Z,11.125
2018-06-23T02:38:04.041Z,11.125
2018-06-23T02:39:03.652Z,11.187
2018-06-23T02:40:03.964Z,11.187
2018-06-23T02:41:03.431Z,11.187
2018-06-23T02:42:04.069Z,11.187
2018-06-23T02:43:03.500Z,11.187
2018-06-23T02:44:03.647Z,11.187
2018-06-23T02:45:04.178Z,11.187
2018-06-23T02:46:03.395Z,11.187
2018-06-23T02:47:03.848Z,11.187
2018-06-23T02:48:03.385Z,11.187
2018-06-23T02:49:03.572Z,11.125
2018-06-23T02:50:03.613Z,11.125
2018-06-23T02:51:04.122Z,11.125
2018-06-23T02:52:03.793Z,11.125
2018-06-23T02:53:03.394Z,11.125
2018-06-23T02:54:03.931Z,11.125
2018-06-23T02:55:03.314Z,11.187
2018-06-23T02:56:03.656Z,11.187
2018-06-23T02:57:04.223Z,11.187
2018-06-23T02:58:03.784Z,11.187
2018-06-23T02:59:04.301Z,11.187
2018-06-23T03:00:03.639Z,11.187
2018-06-23T03:01:03.790Z,11.187
2018-06-23T03:02:03.497Z,11.25
2018-06-23T03:03:03.976Z,11.312
2018-06-23T03:04:03.605Z,11.312
2018-06-23T03:05:04.244Z,11.375
2018-06-23T03:06:03.662Z,11.375
2018-06-23T03:07:03.984Z,11.375
2018-06-23T03:08:03.494Z,11.375
2018-06-23T03:09:04.572Z,11.375
2018-06-23T03:10:03.898Z,11.437
2018-06-23T03:11:04.264Z,11.375
2018-06-23T03:12:03.761Z,11.312
2018-06-23T03:13:04.282Z,11.312
2018-06-23T03:14:03.799Z,11.375
2018-06-23T03:15:03.391Z,11.375
2018-06-23T03:16:03.873Z,11.437
2018-06-23T03:17:04.266Z,11.437
2018-06-23T03:18:03.839Z,11.437
2018-06-23T03:19:03.318Z,11.437
2018-06-23T03:20:03.654Z,11.437
2018-06-23T03:21:04.059Z,11.437
2018-06-23T03:22:03.432Z,11.437
2018-06-23T03:23:03.956Z,11.437
2018-06-23T03:24:03.428Z,11.437
2018-06-23T03:25:03.801Z,11.437
2018-06-23T03:26:04.271Z,11.375
2018-06-23T03:27:03.534Z,11.375
2018-06-23T03:28:04.052Z,11.312
2018-06-23T03:29:03.506Z,11.312
2018-06-23T03:30:03.935Z,11.375
2018-06-23T03:31:03.813Z,11.375
2018-06-23T03:32:03.411Z,11.312
2018-06-23T03:33:03.969Z,11.312
2018-06-23T03:34:03.420Z,11.312
2018-06-23T03:35:03.511Z,11.312
2018-06-23T03:36:04.122Z,11.312
2018-06-23T03:37:03.585Z,11.312
2018-06-23T03:38:05.132Z,11.375
2018-06-23T03:39:04.528Z,11.375
2018-06-23T03:40:03.673Z,11.375
2018-06-23T03:41:03.360Z,11.437
2018-06-23T03:42:04.128Z,11.437
2018-06-23T03:43:03.991Z,11.437
2018-06-23T03:44:03.286Z,11.437
2018-06-23T03:45:03.757Z,11.437
2018-06-23T03:46:04.160Z,11.437
2018-06-23T03:47:03.812Z,11.437
2018-06-23T03:48:04.232Z,11.437
2018-06-23T03:49:03.810Z,11.437
2018-06-23T03:50:04.090Z,11.437
2018-06-23T03:51:03.457Z,11.5
2018-06-23T03:52:03.953Z,11.437
2018-06-23T03:53:03.397Z,11.437
2018-06-23T03:54:03.627Z,11.437
2018-06-23T03:55:03.966Z,11.375
2018-06-23T03:56:03.414Z,11.375
2018-06-23T03:57:03.939Z,11.437
2018-06-23T03:58:03.327Z,11.375
2018-06-23T03:59:03.792Z,11.437
2018-06-23T04:00:04.310Z,11.437
2018-06-23T04:01:03.607Z,11.5
2018-06-23T04:02:04.078Z,11.562
2018-06-23T04:03:03.720Z,11.562
2018-06-23T04:04:04.198Z,11.687
2018-06-23T04:05:03.521Z,11.687
2018-06-23T04:06:03.758Z,11.75
2018-06-23T04:07:05.098Z,11.812
2018-06-23T04:08:03.635Z,11.812
2018-06-23T04:09:04.294Z,11.937
2018-06-23T04:10:05.799Z,12.375
2018-06-23T04:11:04.008Z,12.812
2018-06-23T04:12:03.325Z,12.75
2018-06-23T04:13:03.760Z,13.625
2018-06-23T04:14:03.320Z,14.5
2018-06-23T04:15:03.877Z,14.937
2018-06-23T04:16:04.252Z,14.187
2018-06-23T04:17:03.846Z,13.812
2018-06-23T04:18:04.127Z,13.625
2018-06-23T04:19:03.823Z,13.25
2018-06-23T04:20:03.496Z,13
2018-06-23T04:21:03.917Z,12.687
2018-06-23T04:22:03.495Z,12.5
2018-06-23T04:23:04.121Z,12.312
2018-06-23T04:24:04.701Z,12.187
2018-06-23T04:25:06.594Z,12.125
2018-06-23T04:26:03.341Z,13.062
2018-06-23T04:27:03.919Z,14.125
2018-06-23T04:28:03.405Z,14.937
2018-06-23T04:29:03.902Z,15.75
2018-06-23T04:30:03.515Z,15.937
2018-06-23T04:31:03.817Z,15.187
2018-06-23T04:32:03.355Z,14.562
2018-06-23T04:33:03.658Z,14
2018-06-23T04:34:04.126Z,13.625
2018-06-23T04:35:03.704Z,13.437
2018-06-23T04:36:04.097Z,13.25
2018-06-23T04:37:03.784Z,13
2018-06-23T04:38:03.903Z,12.937
2018-06-23T04:39:03.598Z,12.875
2018-06-23T04:40:03.451Z,12.875
2018-06-23T04:41:03.688Z,12.812
2018-06-23T04:42:04.000Z,12.687
2018-06-23T04:43:04.218Z,12.625
2018-06-23T04:44:04.174Z,12.687
2018-06-23T04:45:03.745Z,12.75
2018-06-23T04:46:03.697Z,12.75
2018-06-23T04:47:04.060Z,13
2018-06-23T04:48:04.222Z,12.812
2018-06-23T04:49:03.487Z,12.75
2018-06-23T04:50:03.976Z,12.625
2018-06-23T04:51:04.157Z,12.625
2018-06-23T04:52:04.214Z,12.562
2018-06-23T04:53:03.707Z,12.562
2018-06-23T04:54:04.171Z,12.562
2018-06-23T04:55:03.572Z,12.625
2018-06-23T04:56:04.010Z,12.75
2018-06-23T04:57:04.272Z,13.062
2018-06-23T04:58:03.465Z,13.187
2018-06-23T04:59:03.946Z,13.312
2018-06-23T05:00:03.524Z,13.312
2018-06-23T05:01:03.634Z,13.25
2018-06-23T05:02:03.671Z,13.25
2018-06-23T05:03:04.130Z,13.375
2018-06-23T05:04:03.618Z,13.437
2018-06-23T05:05:04.046Z,13.312
2018-06-23T05:06:03.675Z,13.187
2018-06-23T05:07:04.293Z,13.125
2018-06-23T05:08:03.887Z,13.062
2018-06-23T05:09:03.437Z,13.062
2018-06-23T05:10:03.895Z,13.062
2018-06-23T05:11:03.489Z,13.062
2018-06-23T05:12:03.930Z,13.187
2018-06-23T05:13:03.349Z,13.187
2018-06-23T05:14:04.008Z,13.187
2018-06-23T05:15:03.937Z,13.125
2018-06-23T05:16:04.208Z,13.125
2018-06-23T05:17:03.859Z,13.125
2018-06-23T05:19:03.324Z,13.062
2018-06-23T05:20:03.865Z,12.937
2018-06-23T05:21:04.039Z,12.812
2018-06-23T05:22:03.630Z,12.875
2018-06-23T05:23:03.572Z,12.875
2018-06-23T05:24:03.374Z,13
2018-06-23T05:25:04.000Z,13
2018-06-23T05:26:03.415Z,12.937
2018-06-23T05:27:03.835Z,12.875
2018-06-23T05:28:03.389Z,12.875
2018-06-23T05:29:04.209Z,12.812
2018-06-23T05:30:03.589Z,12.812
2018-06-23T05:31:04.135Z,12.812
2018-06-23T05:32:04.063Z,12.937
2018-06-23T05:33:03.662Z,13.062
2018-06-23T05:34:03.837Z,13.125
2018-06-23T05:35:03.379Z,13.187
2018-06-23T05:36:03.843Z,13.312
2018-06-23T05:37:03.587Z,13.312
2018-06-23T05:39:04.936Z,14.187
2018-06-23T05:40:04.014Z,14.687
2018-06-23T05:41:04.189Z,15.187
2018-06-23T05:42:03.647Z,15.812
2018-06-23T05:43:04.202Z,16.312
2018-06-23T05:44:03.418Z,16.687
2018-06-23T05:45:03.873Z,16.937
2018-06-23T05:46:03.742Z,17.375
2018-06-23T05:47:03.894Z,17.75
2018-06-23T05:48:04.112Z,17.812
2018-06-23T05:49:03.533Z,18.125
2018-06-23T05:50:03.853Z,18.437
2018-06-23T05:51:04.165Z,18.437
2018-06-23T05:52:03.662Z,18.25
2018-06-23T05:53:04.171Z,18.187
2018-06-23T05:54:03.672Z,18.125
2018-06-23T05:55:04.145Z,18.062
2018-06-23T05:56:03.591Z,17.625
2018-06-23T05:57:04.236Z,16.875
2018-06-23T05:58:03.763Z,16.187
2018-06-23T05:59:03.964Z,15.75
2018-06-23T06:00:03.492Z,15.5
2018-06-23T06:01:03.849Z,15.375
2018-06-23T06:02:03.399Z,15.125
2018-06-23T06:03:03.886Z,14.937
2018-06-23T06:04:03.503Z,14.75
2018-06-23T06:05:03.698Z,14.562
2018-06-23T06:06:04.214Z,14.5
2018-06-23T06:07:03.707Z,14.562
2018-06-23T06:08:04.186Z,14.625
2018-06-23T06:09:03.856Z,14.5
2018-06-23T06:10:03.407Z,14.437
2018-06-23T06:11:03.964Z,14.437
2018-06-23T06:12:03.392Z,14.375
2018-06-23T06:13:04.075Z,14.312
2018-06-23T06:14:03.718Z,14.25
2018-06-23T06:15:04.166Z,14.187
2018-06-23T06:16:03.660Z,14.187
2018-06-23T06:17:04.312Z,14.25
2018-06-23T06:18:03.849Z,14.25
2018-06-23T06:19:03.411Z,14.312
2018-06-23T06:20:03.817Z,14.187
2018-06-23T06:21:03.413Z,14.125
2018-06-23T06:22:03.936Z,14.125
2018-06-23T06:23:04.466Z,14.062
2018-06-23T06:24:04.827Z,14
2018-06-23T06:25:04.073Z,14
2018-06-23T06:26:03.624Z,13.875
2018-06-23T06:27:04.124Z,13.75
2018-06-23T06:28:03.556Z,13.687
2018-06-23T06:29:04.008Z,13.625
2018-06-23T06:30:08.393Z,13.5
2018-06-23T06:31:04.295Z,13.25
2018-06-23T06:32:03.726Z,13.062
2018-06-23T06:33:04.211Z,12.937
2018-06-23T06:34:03.765Z,12.812
2018-06-23T06:35:03.837Z,12.75
2018-06-23T06:36:03.367Z,12.562
2018-06-23T06:37:03.967Z,12.5
2018-06-23T06:38:03.324Z,12.437
2018-06-23T06:39:03.739Z,12.375
2018-06-23T06:40:04.249Z,12.25
2018-06-23T06:41:03.931Z,12.25
2018-06-23T06:42:03.671Z,12.125
2018-06-23T06:43:04.087Z,12.062
2018-06-23T06:44:03.723Z,12
2018-06-23T06:45:03.325Z,12
2018-06-23T06:46:03.755Z,11.937
2018-06-23T06:47:04.128Z,11.812
2018-06-23T06:48:03.650Z,11.75
2018-06-23T06:49:04.097Z,11.75
2018-06-23T06:50:03.606Z,11.812
2018-06-23T06:51:04.153Z,11.812
2018-06-23T06:52:03.509Z,11.875
2018-06-23T06:53:03.454Z,11.875
2018-06-23T06:54:03.989Z,11.812
2018-06-23T06:55:03.433Z,11.75
2018-06-23T06:56:03.750Z,11.75
2018-06-23T06:57:03.874Z,11.75
2018-06-23T06:58:03.356Z,11.75
2018-06-23T06:59:03.868Z,11.75
2018-06-23T07:00:03.579Z,11.75
2018-06-23T07:01:04.040Z,11.75
2018-06-23T07:03:04.057Z,11.812
2018-06-23T07:04:03.560Z,11.75
2018-06-23T07:05:03.894Z,11.75
2018-06-23T07:06:03.360Z,11.687
2018-06-23T07:07:03.952Z,11.812
2018-06-23T07:08:03.428Z,11.937
2018-06-23T07:09:04.016Z,12
2018-06-23T07:10:03.986Z,12.062
2018-06-23T07:11:03.456Z,12.125
2018-06-23T07:12:03.991Z,12.187
2018-06-23T07:13:03.379Z,12.25
2018-06-23T07:14:03.648Z,12.25
2018-06-23T07:15:04.051Z,12.312
2018-06-23T07:16:04.370Z,12.375
2018-06-23T07:17:03.591Z,12.437
2018-06-23T07:18:04.294Z,12.437
2018-06-23T07:19:03.775Z,12.562
2018-06-23T07:20:03.829Z,12.75
2018-06-23T07:21:04.279Z,12.75
2018-06-23T07:22:03.706Z,12.875
2018-06-23T07:23:04.131Z,13
2018-06-23T07:24:04.234Z,12.937
2018-06-23T07:25:03.703Z,12.875
2018-06-23T07:26:04.184Z,12.75
2018-06-23T07:27:03.782Z,12.687
2018-06-23T07:28:04.372Z,12.562
2018-06-23T07:29:03.378Z,12.375
2018-06-23T07:30:04.351Z,12.25
2018-06-23T07:31:03.827Z,12.25
2018-06-23T07:32:04.165Z,12.25
2018-06-23T07:33:04.176Z,12.25
2018-06-23T07:34:04.019Z,12.375
2018-06-23T07:35:03.491Z,12.5
2018-06-23T07:36:04.050Z,12.625
2018-06-23T07:37:04.036Z,12.687
2018-06-23T07:38:04.166Z,12.75
2018-06-23T07:39:03.851Z,12.875
2018-06-23T07:40:03.304Z,12.875
2018-06-23T07:41:03.899Z,12.812
2018-06-23T07:42:04.253Z,12.812
2018-06-23T07:43:03.680Z,12.812
2018-06-23T07:44:04.218Z,12.812
2018-06-23T07:45:03.637Z,12.812
2018-06-23T07:46:04.218Z,12.812
2018-06-23T07:47:03.885Z,12.625
2018-06-23T07:48:03.410Z,12.5
2018-06-23T07:49:03.818Z,12.437
2018-06-23T07:50:03.743Z,12.375
2018-06-23T07:51:03.970Z,12.375
2018-06-23T07:52:03.606Z,12.312
2018-06-23T07:53:03.762Z,12.25
2018-06-23T07:54:04.158Z,12.312
2018-06-23T07:55:03.631Z,12.437
2018-06-23T07:56:03.326Z,12.625
2018-06-23T07:57:03.651Z,12.687
2018-06-23T07:58:04.200Z,12.687
2018-06-23T07:59:04.289Z,12.75
2018-06-23T08:00:03.779Z,12.875
2018-06-23T08:01:04.160Z,13.062
2018-06-23T08:02:03.701Z,13.187
2018-06-23T08:03:04.144Z,13.312
2018-06-23T08:04:03.569Z,13.5
2018-06-23T08:05:03.956Z,13.812
2018-06-23T08:06:03.353Z,14.125
2018-06-23T08:07:03.764Z,14.312
2018-06-23T08:08:03.342Z,14.562
2018-06-23T08:09:03.953Z,14.562
2018-06-23T08:10:03.609Z,14.437
2018-06-23T08:11:04.203Z,14.312
2018-06-23T08:12:03.657Z,14.375
2018-06-23T08:13:03.964Z,14.562
2018-06-23T08:14:03.372Z,14.437
2018-06-23T08:15:03.687Z,14.375
2018-06-23T08:16:04.051Z,14.25
2018-06-23T08:17:03.728Z,14.187
2018-06-23T08:18:04.246Z,13.875
2018-06-23T08:19:03.839Z,13.812
2018-06-23T08:20:03.987Z,13.687
2018-06-23T08:21:03.359Z,13.625
2018-06-23T08:22:03.922Z,13.562
2018-06-23T08:23:04.102Z,13.75
2018-06-23T08:24:04.209Z,13.875
2018-06-23T08:25:03.842Z,13.937
2018-06-23T08:26:04.215Z,13.875
2018-06-23T08:27:03.437Z,13.937
2018-06-23T08:28:03.874Z,13.812
2018-06-23T08:29:03.417Z,13.812
2018-06-23T08:30:04.026Z,13.75
2018-06-23T08:31:03.597Z,13.562
2018-06-23T08:32:04.061Z,13.562
2018-06-23T08:33:03.613Z,13.687
2018-06-23T08:34:04.064Z,14
2018-06-23T08:35:04.409Z,14.5
2018-06-23T08:36:04.036Z,14.687
2018-06-23T08:37:03.506Z,14.75
2018-06-23T08:38:03.994Z,14.687
2018-06-23T08:39:04.254Z,14.687
2018-06-23T08:40:03.452Z,14.687
2018-06-23T08:41:03.895Z,14.562
2018-06-23T08:42:04.234Z,14.375
2018-06-23T08:43:03.795Z,14.312
2018-06-23T08:44:04.322Z,14.25
2018-06-23T08:45:03.400Z,14.25
2018-06-23T08:46:03.859Z,14.312
2018-06-23T08:47:03.346Z,14.437
2018-06-23T08:48:03.876Z,14.625
2018-06-23T08:49:04.114Z,14.812
2018-06-23T08:50:03.596Z,15.062
2018-06-23T08:51:03.627Z,15.437
2018-06-23T08:52:03.912Z,15.687
2018-06-23T08:53:03.426Z,15.937
2018-06-23T08:54:04.077Z,16.312
2018-06-23T08:55:03.606Z,16.625
2018-06-23T08:56:04.089Z,16.937
2018-06-23T08:57:03.846Z,17.187
2018-06-23T08:58:03.425Z,17.375
2018-06-23T08:59:03.776Z,17.562
2018-06-23T09:00:04.221Z,17.375
2018-06-23T09:01:03.612Z,17.187
2018-06-23T09:02:04.181Z,16.937
2018-06-23T09:03:03.782Z,16.812
2018-06-23T09:04:03.251Z,16.75
2018-06-23T09:05:03.527Z,16.562
2018-06-23T09:06:03.980Z,16.375
2018-06-23T09:07:03.503Z,16.062
2018-06-23T09:08:04.064Z,15.75
2018-06-23T09:09:03.652Z,15.687
2018-06-23T09:10:03.986Z,15.625
2018-06-23T09:11:03.259Z,15.562
2018-06-23T09:12:03.912Z,15.375
2018-06-23T09:13:03.778Z,15.312
2018-06-23T09:14:04.080Z,15.125
2018-06-23T09:15:04.458Z,15
2018-06-23T09:16:03.754Z,15
2018-06-23T09:17:03.600Z,14.937
2018-06-23T09:18:04.069Z,15
2018-06-23T09:19:03.656Z,15.125
2018-06-23T09:20:04.105Z,15.25
2018-06-23T09:21:03.652Z,15.312
2018-06-23T09:22:04.340Z,15.375
2018-06-23T09:23:03.445Z,15.562
2018-06-23T09:24:03.840Z,15.687
2018-06-23T09:25:03.260Z,15.812
2018-06-23T09:26:03.852Z,16
2018-06-23T09:27:03.347Z,16
2018-06-23T09:28:03.983Z,16
2018-06-23T09:29:03.458Z,15.875
2018-06-23T09:30:03.987Z,16
2018-06-23T09:31:04.116Z,16.312
2018-06-23T09:32:03.621Z,16.687
2018-06-23T09:33:04.474Z,16.812
2018-06-23T09:34:04.001Z,16.875
2018-06-23T09:35:03.502Z,16.937
2018-06-23T09:36:03.882Z,17.25
2018-06-23T09:37:03.349Z,17.75
2018-06-23T09:38:03.825Z,18
2018-06-23T09:39:03.561Z,18.312
2018-06-23T09:40:04.139Z,18.375
2018-06-23T09:41:03.581Z,18.187
2018-06-23T09:42:04.068Z,18.187
2018-06-23T09:43:03.556Z,18.375
2018-06-23T09:44:03.918Z,18.5
2018-06-23T09:45:03.517Z,18.375
2018-06-23T09:46:03.567Z,18.312
2018-06-23T09:47:04.065Z,18.562
2018-06-23T09:48:03.454Z,18.75
2018-06-23T09:49:05.298Z,18.687
2018-06-23T09:50:03.346Z,18.312
2018-06-23T09:51:04.049Z,17.875
2018-06-23T09:52:03.468Z,17.687
2018-06-23T09:53:03.837Z,17.625
2018-06-23T09:54:04.280Z,17.75
2018-06-23T09:55:03.285Z,17.687
2018-06-23T09:56:04.070Z,17.625
2018-06-23T09:57:03.791Z,17.75
2018-06-23T09:58:04.243Z,17.75
2018-06-23T09:59:03.739Z,17.812
2018-06-23T10:00:04.223Z,17.875
2018-06-23T10:01:03.635Z,18
2018-06-23T10:02:04.021Z,18.187
2018-06-23T10:03:03.602Z,18.375
2018-06-23T10:04:03.906Z,18.375
2018-06-23T10:05:04.235Z,18.5
2018-06-23T10:06:04.619Z,18.875
2018-06-23T10:07:03.584Z,19.25
2018-06-23T10:08:04.073Z,19.375
2018-06-23T10:09:03.836Z,19.562
2018-06-23T10:10:04.157Z,19.812
2018-06-23T10:11:03.745Z,20.125
2018-06-23T10:12:04.221Z,20.062
2018-06-23T10:14:03.585Z,19.875
2018-06-23T10:15:04.187Z,19.687
2018-06-23T10:16:03.606Z,19.75
2018-06-23T10:17:04.235Z,19.875
2018-06-23T10:18:03.709Z,20.062
2018-06-23T10:19:04.385Z,20.375
2018-06-23T10:20:03.707Z,20.437
2018-06-23T10:21:04.250Z,20.687
2018-06-23T10:22:03.478Z,20.875
2018-06-23T10:23:04.088Z,21
2018-06-23T10:24:03.659Z,21.125
2018-06-23T10:25:04.120Z,21
2018-06-23T10:26:03.687Z,20.75
2018-06-23T10:27:04.233Z,20.5
2018-06-23T10:28:03.896Z,20.187
2018-06-23T10:29:04.106Z,20.312
2018-06-23T10:30:03.625Z,20.437
2018-06-23T10:31:04.128Z,20.312
2018-06-23T10:32:04.128Z,20.187
2018-06-23T10:33:03.613Z,20.187
2018-06-23T10:34:05.074Z,20.437
2018-06-23T10:35:03.350Z,20.687
2018-06-23T10:36:03.844Z,20.937
2018-06-23T10:37:03.432Z,21.25
2018-06-23T10:38:03.979Z,21.312
2018-06-23T10:39:03.530Z,21.562
2018-06-23T10:40:03.756Z,21.5
2018-06-23T10:41:03.519Z,21.312
2018-06-23T10:42:03.848Z,21.5
2018-06-23T10:43:03.754Z,21.562
2018-06-23T10:44:03.628Z,21.812
2018-06-23T10:45:04.101Z,22.312
2018-06-23T10:46:03.595Z,22.625
2018-06-23T10:47:04.157Z,22.687
2018-06-23T10:48:03.693Z,22.875
2018-06-23T10:49:04.185Z,22.75
2018-06-23T10:50:03.813Z,22.562
2018-06-23T10:51:04.233Z,22.25
2018-06-23T10:52:03.728Z,22
2018-06-23T10:53:04.007Z,21.75
2018-06-23T10:54:03.451Z,21.625
2018-06-23T10:55:03.505Z,21.75
2018-06-23T10:56:03.597Z,21.875
2018-06-23T10:57:03.986Z,21.812
2018-06-23T10:58:03.592Z,21.687
2018-06-23T10:59:03.968Z,21.625
2018-06-23T11:00:03.385Z,21.875
2018-06-23T11:01:03.941Z,21.937
2018-06-23T11:02:03.489Z,22.125
2018-06-23T11:03:03.911Z,22
2018-06-23T11:04:03.367Z,21.875
2018-06-23T11:05:03.949Z,21.75
2018-06-23T11:06:03.399Z,21.625
2018-06-23T11:07:03.992Z,21.625
2018-06-23T11:08:03.516Z,21.375
2018-06-23T11:09:04.107Z,20.937
2018-06-23T11:10:03.486Z,20.687
2018-06-23T11:11:03.937Z,20.562
2018-06-23T11:12:03.417Z,20.375
2018-06-23T11:13:03.905Z,20.25
2018-06-23T11:14:03.284Z,20.312
2018-06-23T11:15:03.574Z,20.437
2018-06-23T11:16:03.794Z,20.375
2018-06-23T11:17:04.331Z,20.375
2018-06-23T11:19:03.776Z,20.562
2018-06-23T11:20:03.342Z,20.875
2018-06-23T11:21:03.885Z,21.187
2018-06-23T11:22:03.297Z,21.312
2018-06-23T11:23:03.749Z,21
2018-06-23T11:24:04.201Z,20.687
2018-06-23T11:25:03.717Z,20.625
2018-06-23T11:26:03.484Z,20.625
2018-06-23T11:27:04.058Z,20.625
2018-06-23T11:28:03.469Z,20.625
2018-06-23T11:29:03.939Z,20.937
2018-06-23T11:30:03.531Z,21
2018-06-23T11:31:04.009Z,21.375
2018-06-23T11:32:03.421Z,21.875
2018-06-23T11:33:03.849Z,22.062
2018-06-23T11:34:03.333Z,22.312
2018-06-23T11:35:03.820Z,22.437
2018-06-23T11:37:04.119Z,22.375
2018-06-23T11:38:03.797Z,22.062
2018-06-23T11:39:03.461Z,21.875
2018-06-23T11:40:03.905Z,21.812
2018-06-23T11:41:03.833Z,21.562
2018-06-23T11:42:03.396Z,21.312
2018-06-23T11:43:03.846Z,21.125
2018-06-23T11:44:04.343Z,21.062
2018-06-23T11:45:03.818Z,20.937
2018-06-23T11:46:04.156Z,20.625
2018-06-23T11:47:03.434Z,20.437
2018-06-23T11:48:03.821Z,20.5
2018-06-23T11:49:04.282Z,20.5
2018-06-23T11:50:03.296Z,20.562
2018-06-23T11:51:03.928Z,20.5
2018-06-23T11:52:03.473Z,20.25
2018-06-23T11:53:04.011Z,20.187
2018-06-23T11:54:03.508Z,19.937
2018-06-23T11:55:03.969Z,19.625
2018-06-23T11:56:03.338Z,19.375
2018-06-23T11:57:03.708Z,19.5
2018-06-23T11:58:04.136Z,19.937
2018-06-23T11:59:03.538Z,20.187
2018-06-23T12:00:03.764Z,20.375
2018-06-23T12:01:04.138Z,20.25
2018-06-23T12:02:03.530Z,20.125
2018-06-23T12:03:04.401Z,20.187
2018-06-23T12:04:03.777Z,20.187
2018-06-23T12:05:04.116Z,20
2018-06-23T12:06:03.536Z,19.687
2018-06-23T12:07:03.597Z,19.437
2018-06-23T12:08:04.069Z,19.062
2018-06-23T12:09:03.822Z,18.75
2018-06-23T12:10:03.603Z,18.437
2018-06-23T12:11:04.168Z,18.375
2018-06-23T12:12:03.691Z,18.312
2018-06-23T12:13:03.985Z,18.187
2018-06-23T12:14:03.443Z,18.25
2018-06-23T12:15:04.045Z,18.312
2018-06-23T12:17:04.435Z,18.312
2018-06-23T12:18:03.814Z,18.25
2018-06-23T12:19:04.207Z,18.312
2018-06-23T12:20:03.356Z,18.375
2018-06-23T12:21:04.016Z,18.375
2018-06-23T12:22:03.596Z,18.5
2018-06-23T12:23:04.065Z,18.625
2018-06-23T12:24:03.382Z,18.937
2018-06-23T12:25:04.044Z,19.187
2018-06-23T12:26:03.637Z,19.437
2018-06-23T12:27:03.618Z,19.5
2018-06-23T12:28:04.058Z,19.562
2018-06-23T12:29:04.194Z,19.562
2018-06-23T12:30:03.689Z,19.625
2018-06-23T12:31:04.124Z,19.562
2018-06-23T12:32:03.500Z,19.5
2018-06-23T12:33:03.694Z,19.5
2018-06-23T12:34:04.274Z,19.625
2018-06-23T12:35:03.441Z,19.562
2018-06-23T12:36:03.698Z,19.5
2018-06-23T12:37:04.167Z,19.25
2018-06-23T12:38:03.783Z,19.125
2018-06-23T12:39:03.564Z,18.75
2018-06-23T12:40:04.150Z,18.187
2018-06-23T12:41:03.651Z,17.5
2018-06-23T12:42:04.080Z,16.937
2018-06-23T12:43:03.599Z,16.5
2018-06-23T12:44:04.086Z,16.25
2018-06-23T12:45:03.341Z,16.062
2018-06-23T12:46:03.384Z,15.875